createdAt,value
2023-01-25T00:00:43.349Z,9.60
2023-01-25T00:05:34.958Z,10.17
2023-01-25T00:10:26.542Z,9.87
2023-01-25T00:15:18.093Z,10.30
2023-01-25T00:20:11.599Z,8.67
2023-01-25T00:25:03.451Z,9.53
2023-01-25T00:29:55.003Z,8.33
2023-01-25T00:34:48.843Z,9.30
2023-01-25T00:39:40.843Z,9.03
2023-01-25T00:44:32.434Z,8.70
2023-01-25T00:49:26.929Z,8.57
2023-01-25T00:54:19.257Z,8.77
2023-01-25T00:59:12.277Z,9.53
2023-01-25T01:04:06.576Z,9.93
2023-01-25T01:08:58.231Z,8.47
2023-01-25T01:13:49.787Z,8.73
2023-01-25T01:18:44.231Z,8.50
2023-01-25T01:23:36.779Z,9.10
2023-01-25T01:28:30.589Z,9.37
2023-01-25T01:33:22.101Z,9.57
2023-01-25T01:38:13.807Z,9.23
2023-01-25T01:43:16.125Z,10.13
2023-01-25T01:48:29.316Z,9.90
2023-01-25T01:53:24.674Z,8.50
2023-01-25T01:58:16.588Z,8.83
2023-01-25T02:03:11.229Z,9.17
2023-01-25T02:08:04.004Z,10.10
2023-01-25T02:12:58.677Z,8.70
2023-01-25T02:17:51.611Z,9.67
2023-01-25T02:23:03.297Z,9.27
2023-01-25T02:27:59.948Z,10.13
2023-01-25T02:32:52.541Z,9.27
2023-01-25T02:37:45.244Z,9.47
2023-01-25T02:42:37.277Z,9.73
2023-01-25T02:47:29.839Z,9.30
2023-01-25T02:52:21.396Z,9.63
2023-01-25T02:57:13.557Z,9.20
2023-01-25T03:02:07.887Z,10.13
2023-01-25T03:07:01.558Z,9.27
2023-01-25T03:11:54.353Z,9.87
2023-01-25T03:16:47.922Z,9.87
2023-01-25T03:21:44.364Z,10.47
2023-01-25T03:26:58.858Z,11.50
2023-01-25T03:32:05.764Z,11.17
2023-01-25T03:36:57.486Z,10.43
2023-01-25T03:41:49.477Z,10.57
2023-01-25T03:46:42.635Z,10.30
2023-01-25T03:51:35.864Z,10.00
2023-01-25T03:56:28.219Z,9.53
2023-01-25T04:01:27.043Z,9.93
2023-01-25T04:06:19.187Z,9.13
2023-01-25T04:11:10.921Z,9.53
2023-01-25T04:16:11.750Z,9.30
2023-01-25T04:21:32.101Z,10.53
2023-01-25T04:26:23.999Z,10.07
2023-01-25T04:31:20.373Z,10.17
2023-01-25T04:36:14.936Z,10.67
2023-01-25T04:41:07.994Z,11.07
2023-01-25T04:46:02.666Z,10.70
2023-01-25T04:50:56.788Z,11.23
2023-01-25T04:55:49.672Z,9.93
2023-01-25T05:00:41.606Z,10.80
2023-01-25T05:05:33.683Z,11.77
2023-01-25T05:10:29.577Z,9.97
2023-01-25T05:15:50.663Z,11.10
2023-01-25T05:20:42.518Z,9.67
2023-01-25T05:25:54.283Z,11.23
2023-01-25T05:30:55.593Z,10.50
2023-01-25T05:35:50.613Z,10.77
2023-01-25T05:40:42.809Z,11.03
2023-01-25T05:45:34.451Z,10.77
2023-01-25T05:50:27.875Z,11.57
2023-01-25T05:55:25.441Z,11.00
2023-01-25T06:00:19.584Z,11.33
2023-01-25T06:05:11.527Z,11.23
2023-01-25T06:10:04.814Z,12.30
2023-01-25T06:14:57.031Z,11.27
2023-01-25T06:19:48.745Z,11.40
2023-01-25T06:24:54.794Z,10.73
2023-01-25T06:29:46.491Z,11.10
2023-01-25T06:34:38.165Z,10.73
2023-01-25T06:39:33.825Z,11.97
2023-01-25T06:44:25.447Z,12.37
2023-01-25T06:49:16.998Z,12.47
2023-01-25T06:54:08.544Z,12.00
2023-01-25T06:59:00.173Z,11.07
2023-01-25T07:03:54.193Z,11.53
2023-01-25T07:08:46.163Z,12.47
2023-01-25T07:13:38.213Z,11.97
2023-01-25T07:18:32.397Z,11.17
2023-01-25T07:23:24.641Z,11.53
2023-01-25T07:28:17.507Z,12.97
2023-01-25T07:33:11.598Z,11.40
2023-01-25T07:38:04.244Z,12.30
2023-01-25T07:42:56.066Z,12.40
2023-01-25T07:47:48.987Z,12.30
2023-01-25T07:52:41.714Z,29.67
2023-01-25T07:57:33.291Z,13.47
2023-01-25T08:02:24.898Z,14.23
2023-01-25T08:07:16.571Z,13.10
2023-01-25T08:12:09.714Z,13.80
2023-01-25T08:17:02.058Z,12.43
2023-01-25T08:21:53.686Z,14.07
2023-01-25T08:26:45.247Z,13.40
2023-01-25T08:31:39.535Z,13.53
2023-01-25T08:36:31.220Z,13.57
2023-01-25T08:41:23.471Z,13.50
2023-01-25T08:46:16.692Z,13.73
2023-01-25T08:51:11.420Z,14.73
2023-01-25T08:56:08.150Z,13.77
2023-01-25T09:01:05.615Z,14.43
2023-01-25T09:05:57.712Z,14.67
2023-01-25T09:10:49.357Z,14.87
2023-01-25T09:15:41.018Z,14.70
2023-01-25T09:20:34.490Z,14.63
2023-01-25T09:25:26.498Z,13.57
2023-01-25T09:30:19.282Z,13.63
2023-01-25T09:35:17.227Z,13.33
2023-01-25T09:40:21.923Z,14.33
2023-01-25T09:45:32.637Z,14.27
2023-01-25T09:50:27.263Z,14.70
2023-01-25T09:55:22.605Z,15.33
2023-01-25T10:00:26.807Z,16.13
2023-01-25T10:05:25.937Z,14.63
2023-01-25T10:10:30.049Z,15.00
2023-01-25T10:15:28.823Z,15.60
2023-01-25T10:20:31.824Z,14.67
2023-01-25T10:25:33.924Z,15.80
2023-01-25T10:30:31.294Z,14.67
2023-01-25T10:35:36.092Z,15.33
2023-01-25T10:40:35.194Z,16.17
2023-01-25T10:45:26.762Z,15.87
2023-01-25T10:50:54.528Z,16.17
2023-01-25T10:56:05.545Z,15.13
2023-01-25T11:00:58.038Z,16.30
2023-01-25T11:05:57.135Z,16.03
2023-01-25T11:10:49.556Z,15.07
2023-01-25T11:15:44.653Z,16.07
2023-01-25T11:20:36.387Z,16.30
2023-01-25T11:25:34.104Z,16.77
2023-01-25T11:30:25.797Z,17.97
2023-01-25T11:35:25.715Z,17.87
2023-01-25T11:40:22.220Z,16.93
2023-01-25T11:45:24.175Z,16.07
2023-01-25T11:50:36.389Z,22.97
2023-01-25T11:55:56.382Z,17.83
2023-01-25T12:01:16.143Z,17.50
2023-01-25T12:06:16.687Z,17.53
2023-01-25T12:11:23.533Z,17.87
2023-01-25T12:16:38.290Z,18.00
2023-01-25T12:22:00.941Z,18.67
2023-01-25T12:27:05.926Z,17.10
2023-01-25T12:32:33.146Z,16.83
2023-01-25T12:37:32.704Z,16.60
2023-01-25T12:42:57.539Z,17.77
2023-01-25T12:47:58.038Z,16.20
2023-01-25T12:52:55.893Z,18.07
2023-01-25T12:57:56.717Z,19.03
2023-01-25T13:03:00.150Z,18.60
2023-01-25T13:08:14.056Z,19.40
2023-01-25T13:13:28.835Z,18.53
2023-01-25T13:18:31.025Z,16.93
2023-01-25T13:23:43.793Z,17.13
2023-01-25T13:28:47.444Z,18.00
2023-01-25T13:33:39.116Z,17.33
2023-01-25T13:38:33.230Z,17.20
2023-01-25T13:43:24.943Z,17.37
2023-01-25T13:48:23.329Z,17.43
2023-01-25T13:53:14.975Z,18.63
2023-01-25T13:58:33.828Z,18.50
2023-01-25T14:03:32.203Z,18.33
2023-01-25T14:08:26.388Z,18.73
2023-01-25T14:13:18.650Z,17.20
2023-01-25T14:18:19.217Z,18.37
2023-01-25T14:23:22.059Z,18.83
2023-01-25T14:28:15.133Z,19.17
2023-01-25T14:33:24.583Z,18.77
2023-01-25T14:38:25.424Z,19.63
2023-01-25T14:43:18.147Z,18.87
2023-01-25T14:48:40.470Z,20.13
2023-01-25T14:53:32.205Z,21.87
2023-01-25T14:58:25.355Z,20.20
2023-01-25T15:03:17.362Z,21.10
2023-01-25T15:08:08.845Z,21.93
2023-01-25T15:13:13.763Z,22.50
2023-01-25T15:18:06.485Z,21.53
2023-01-25T15:23:14.240Z,21.80
2023-01-25T15:28:06.470Z,21.07
2023-01-25T15:32:59.943Z,20.40
2023-01-25T15:37:51.527Z,20.93
2023-01-25T15:42:43.190Z,23.47
2023-01-25T15:47:36.748Z,23.60
2023-01-25T15:52:28.473Z,21.53
2023-01-25T15:57:30.085Z,20.63
2023-01-25T16:02:21.771Z,21.53
2023-01-25T16:07:22.945Z,20.00
2023-01-25T16:12:15.910Z,22.93
2023-01-25T16:17:18.331Z,21.50
2023-01-25T16:22:10.468Z,20.47
2023-01-25T16:27:02.128Z,21.20
2023-01-25T16:31:55.425Z,21.20
2023-01-25T16:36:50.664Z,19.97
2023-01-25T16:41:42.342Z,21.77
2023-01-25T16:46:33.998Z,22.20
2023-01-25T16:51:27.959Z,22.20
2023-01-25T16:56:21.783Z,20.63
2023-01-25T17:01:15.009Z,21.67
2023-01-25T17:06:07.957Z,23.37
2023-01-25T17:11:04.970Z,22.73
2023-01-25T17:15:57.068Z,21.00
2023-01-25T17:20:57.625Z,21.83
2023-01-25T17:25:49.227Z,22.20
2023-01-25T17:30:41.237Z,22.23
2023-01-25T17:35:35.825Z,21.87
2023-01-25T17:40:27.524Z,20.57
2023-01-25T17:45:19.275Z,19.30
2023-01-25T17:50:11.431Z,19.23
2023-01-25T17:55:03.749Z,20.00
2023-01-25T17:59:55.491Z,20.50
2023-01-25T18:04:47.027Z,21.17
2023-01-25T18:09:38.600Z,20.87
2023-01-25T18:14:30.294Z,17.80
2023-01-25T18:19:22.520Z,19.50
2023-01-25T18:24:34.105Z,22.27
2023-01-25T18:29:51.117Z,20.57
2023-01-25T18:34:42.733Z,19.93
2023-01-25T18:39:34.552Z,19.40
2023-01-25T18:44:26.125Z,19.40
2023-01-25T18:49:17.710Z,16.10
2023-01-25T18:54:09.229Z,15.37
2023-01-25T18:59:00.951Z,13.50
2023-01-25T19:03:52.843Z,24.70
2023-01-25T19:08:49.669Z,12.93
2023-01-25T19:13:42.453Z,15.50
2023-01-25T19:18:40.876Z,13.03
2023-01-25T19:23:34.626Z,12.73
2023-01-25T19:28:26.907Z,11.47
2023-01-25T19:33:20.852Z,12.13
2023-01-25T19:38:13.539Z,11.83
2023-01-25T19:43:05.375Z,10.93
2023-01-25T19:47:56.935Z,11.07
2023-01-25T19:52:48.491Z,10.70
2023-01-25T19:57:40.328Z,12.67
2023-01-25T20:02:32.341Z,11.93
2023-01-25T20:07:25.744Z,11.90
2023-01-25T20:12:17.265Z,12.40
2023-01-25T20:17:09.190Z,10.27
2023-01-25T20:22:01.391Z,10.53
2023-01-25T20:26:53.041Z,9.90
2023-01-25T20:31:45.876Z,10.43
2023-01-25T20:36:38.289Z,10.60
2023-01-25T20:41:30.221Z,11.60
2023-01-25T20:46:22.179Z,9.50
2023-01-25T20:51:16.876Z,11.07
2023-01-25T20:56:09.689Z,11.27
2023-01-25T21:01:01.482Z,10.70
2023-01-25T21:05:56.585Z,11.57
2023-01-25T21:10:54.219Z,10.20
2023-01-25T21:15:59.396Z,11.20
2023-01-25T21:20:50.995Z,11.57
2023-01-25T21:25:42.830Z,11.33
2023-01-25T21:30:34.446Z,11.27
2023-01-25T21:35:26.423Z,12.90
2023-01-25T21:40:18.079Z,12.80
2023-01-25T21:45:29.232Z,13.43
2023-01-25T21:50:39.400Z,14.20
2023-01-25T21:55:30.930Z,12.50
2023-01-25T22:00:22.544Z,14.80
2023-01-25T22:05:14.145Z,15.67
2023-01-25T22:10:05.961Z,16.30
2023-01-25T22:14:57.627Z,17.37
2023-01-25T22:19:49.337Z,19.20
2023-01-25T22:24:40.960Z,16.73
2023-01-25T22:29:34.330Z,17.33
2023-01-25T22:34:26.645Z,17.47
2023-01-25T22:39:18.358Z,16.97
2023-01-25T22:44:10.169Z,17.93
2023-01-25T22:49:02.582Z,16.40
2023-01-25T22:53:55.662Z,17.10
2023-01-25T22:58:48.403Z,16.50
2023-01-25T23:03:40.390Z,16.20
2023-01-25T23:08:34.398Z,17.27
2023-01-25T23:13:26.490Z,19.27
2023-01-25T23:18:36.877Z,19.20
2023-01-25T23:23:28.912Z,20.03
2023-01-25T23:28:20.496Z,21.63
2023-01-25T23:33:12.162Z,16.80
2023-01-25T23:38:15.183Z,16.33
2023-01-25T23:43:06.870Z,18.60
2023-01-25T23:47:58.557Z,19.87
2023-01-25T23:52:50.100Z,20.00
2023-01-25T23:57:41.808Z,19.33
